createdAt,value
2018-02-17T00:00:35.050Z,99.99
2018-02-17T00:01:35.058Z,99.99
2018-02-17T00:02:35.073Z,99.99
2018-02-17T00:03:35.076Z,99.99
2018-02-17T00:04:35.081Z,99.99
2018-02-17T00:05:35.104Z,99.99
2018-02-17T00:06:35.100Z,99.99
2018-02-17T00:07:35.119Z,99.99
2018-02-17T00:08:35.123Z,99.99
2018-02-17T00:09:35.129Z,99.99
2018-02-17T00:10:35.149Z,99.99
2018-02-17T00:11:35.151Z,99.99
2018-02-17T00:12:35.161Z,99.99
2018-02-17T00:13:35.187Z,99.99
2018-02-17T00:14:35.193Z,99.99
2018-02-17T00:15:35.203Z,99.99
2018-02-17T00:16:35.213Z,99.99
2018-02-17T00:17:35.217Z,99.99
2018-02-17T00:18:35.237Z,99.99
2018-02-17T00:19:35.243Z,99.99
2018-02-17T00:20:35.250Z,99.99
2018-02-17T00:21:35.264Z,99.99
2018-02-17T00:22:35.268Z,99.99
2018-02-17T00:23:35.284Z,99.99
2018-02-17T00:24:35.292Z,99.99
2018-02-17T00:25:35.296Z,99.99
2018-02-17T00:26:35.309Z,99.99
2018-02-17T00:27:35.313Z,99.99
2018-02-17T00:28:35.323Z,99.99
2018-02-17T00:29:35.336Z,99.99
2018-02-17T00:30:35.345Z,99.99
2018-02-17T00:31:35.358Z,99.99
2018-02-17T00:32:35.369Z,99.99
2018-02-17T00:33:35.376Z,99.99
2018-02-17T00:34:35.386Z,99.99
2018-02-17T00:35:35.392Z,99.99
2018-02-17T00:36:35.400Z,99.99
2018-02-17T00:37:35.415Z,99.99
2018-02-17T00:38:35.428Z,99.99
2018-02-17T00:39:35.431Z,99.99
2018-02-17T00:40:35.442Z,99.99
2018-02-17T00:41:35.458Z,99.99
2018-02-17T00:42:35.460Z,99.99
2018-02-17T00:43:35.488Z,99.99
2018-02-17T00:44:35.484Z,99.99
2018-02-17T00:45:35.490Z,99.99
2018-02-17T00:46:35.506Z,99.99
2018-02-17T00:47:35.518Z,99.99
2018-02-17T00:48:35.517Z,99.99
2018-02-17T00:49:35.536Z,99.99
2018-02-17T00:50:35.554Z,99.99
2018-02-17T00:51:35.564Z,99.99
2018-02-17T00:52:35.573Z,99.99
2018-02-17T00:53:35.579Z,99.99
2018-02-17T00:54:35.595Z,99.99
2018-02-17T00:55:35.599Z,99.99
2018-02-17T00:56:35.623Z,99.99
2018-02-17T00:57:35.623Z,99.99
2018-02-17T00:58:35.623Z,99.99
2018-02-17T00:59:35.636Z,99.99
2018-02-17T01:00:35.650Z,99.99
2018-02-17T01:01:35.654Z,99.99
2018-02-17T01:02:35.667Z,99.99
2018-02-17T01:03:35.673Z,99.99
2018-02-17T01:04:35.681Z,99.99
2018-02-17T01:05:35.695Z,99.99
2018-02-17T01:06:35.699Z,99.99
2018-02-17T01:07:35.719Z,99.99
2018-02-17T01:08:35.725Z,99.99
2018-02-17T01:09:35.727Z,99.99
2018-02-17T01:10:35.740Z,99.99
2018-02-17T01:11:35.749Z,99.99
2018-02-17T01:12:35.755Z,99.99
2018-02-17T01:13:35.778Z,99.99
2018-02-17T01:14:35.777Z,99.99
2018-02-17T01:15:35.794Z,99.99
2018-02-17T01:16:35.799Z,99.99
2018-02-17T01:17:35.804Z,99.99
2018-02-17T01:18:35.815Z,99.99
2018-02-17T01:19:35.821Z,99.99
2018-02-17T01:20:35.836Z,99.99
2018-02-17T01:21:35.843Z,99.99
2018-02-17T01:22:35.851Z,99.99
2018-02-17T01:23:35.865Z,99.99
2018-02-17T01:24:35.873Z,99.99
2018-02-17T01:25:35.886Z,99.99
2018-02-17T01:26:35.892Z,99.99
2018-02-17T01:27:35.898Z,99.99
2018-02-17T01:28:35.908Z,99.99
2018-02-17T01:29:35.923Z,99.99
2018-02-17T01:30:35.928Z,99.99
2018-02-17T01:31:35.936Z,99.99
2018-02-17T01:32:35.951Z,99.99
2018-02-17T01:33:35.950Z,99.99
2018-02-17T01:34:35.968Z,99.99
2018-02-17T01:35:35.970Z,99.99
2018-02-17T01:36:35.985Z,99.99
2018-02-17T01:37:35.998Z,99.99
2018-02-17T01:38:35.997Z,99.99
2018-02-17T01:39:36.015Z,99.99
2018-02-17T01:40:36.019Z,99.99
2018-02-17T01:41:36.023Z,99.99
2018-02-17T01:42:36.039Z,99.99
2018-02-17T01:43:36.048Z,99.99
2018-02-17T01:44:36.053Z,99.99
2018-02-17T01:45:36.065Z,99.99
2018-02-17T01:46:36.068Z,99.99
2018-02-17T01:47:36.083Z,99.99
2018-02-17T01:48:36.092Z,99.99
2018-02-17T01:49:36.096Z,99.99
2018-02-17T01:50:36.111Z,99.99
2018-02-17T01:51:36.115Z,99.99
2018-02-17T01:52:36.127Z,99.99
2018-02-17T01:53:36.139Z,99.99
2018-02-17T01:54:36.155Z,99.99
2018-02-17T01:55:36.159Z,99.99
2018-02-17T01:56:36.168Z,99.99
2018-02-17T01:57:36.170Z,99.99
2018-02-17T01:58:36.183Z,99.99
2018-02-17T01:59:36.191Z,99.99
2018-02-17T02:00:36.201Z,99.99
2018-02-17T02:01:36.210Z,99.99
2018-02-17T02:02:36.217Z,99.99
2018-02-17T02:03:36.234Z,99.99
2018-02-17T02:04:36.254Z,99.99
2018-02-17T02:05:36.248Z,99.99
2018-02-17T02:06:36.256Z,99.99
2018-02-17T02:07:36.259Z,99.99
2018-02-17T02:08:36.281Z,99.99
2018-02-17T02:09:36.283Z,99.99
2018-02-17T02:10:36.291Z,99.99
2018-02-17T02:11:36.306Z,99.99
2018-02-17T02:12:36.312Z,99.99
2018-02-17T02:13:36.317Z,99.99
2018-02-17T02:14:36.330Z,99.99
2018-02-17T02:15:36.335Z,99.99
2018-02-17T02:16:36.346Z,99.99
2018-02-17T02:17:36.360Z,99.99
2018-02-17T02:18:36.376Z,99.99
2018-02-17T02:19:36.385Z,99.99
2018-02-17T02:20:36.397Z,99.99
2018-02-17T02:21:36.399Z,99.99
2018-02-17T02:22:36.414Z,99.99
2018-02-17T02:23:36.420Z,99.99
2018-02-17T02:24:36.429Z,99.99
2018-02-17T02:25:36.442Z,99.99
2018-02-17T02:26:36.446Z,99.99
2018-02-17T02:27:36.457Z,99.99
2018-02-17T02:28:36.467Z,99.99
2018-02-17T02:29:36.477Z,99.99
2018-02-17T02:30:36.485Z,99.99
2018-02-17T02:31:36.496Z,99.99
2018-02-17T02:32:36.502Z,99.99
2018-02-17T02:33:36.513Z,99.99
2018-02-17T02:34:36.519Z,99.99
2018-02-17T02:35:36.530Z,99.99
2018-02-17T02:36:36.540Z,99.99
2018-02-17T02:37:36.546Z,99.99
2018-02-17T02:38:36.560Z,99.99
2018-02-17T02:39:36.567Z,99.99
2018-02-17T02:40:36.571Z,99.99
2018-02-17T02:41:36.585Z,99.99
2018-02-17T02:42:36.593Z,99.99
2018-02-17T02:43:36.604Z,99.99
2018-02-17T02:44:36.625Z,99.99
2018-02-17T02:45:36.618Z,99.99
2018-02-17T02:46:36.627Z,99.99
2018-02-17T02:47:36.652Z,99.99
2018-02-17T02:48:36.662Z,99.99
2018-02-17T02:49:36.671Z,99.99
2018-02-17T02:50:36.677Z,99.99
2018-02-17T02:51:36.681Z,99.99
2018-02-17T02:52:36.702Z,99.99
2018-02-17T02:53:36.703Z,99.99
2018-02-17T02:54:36.713Z,99.99
2018-02-17T02:55:36.725Z,99.99
2018-02-17T02:56:36.733Z,99.99
2018-02-17T02:57:36.744Z,99.99
2018-02-17T02:58:36.749Z,99.99
2018-02-17T02:59:36.806Z,99.99
2018-02-17T03:00:36.762Z,99.99
2018-02-17T03:01:36.775Z,99.99
2018-02-17T03:02:36.780Z,99.99
2018-02-17T03:03:36.795Z,99.99
2018-02-17T03:04:36.803Z,99.99
2018-02-17T03:05:36.812Z,99.99
2018-02-17T03:06:36.823Z,99.99
2018-02-17T03:07:36.831Z,99.99
2018-02-17T03:08:36.839Z,99.99
2018-02-17T03:09:36.849Z,99.99
2018-02-17T03:10:36.853Z,99.99
2018-02-17T03:11:36.870Z,99.99
2018-02-17T03:12:36.873Z,99.99
2018-02-17T03:13:36.884Z,99.99
2018-02-17T03:14:36.896Z,99.99
2018-02-17T03:15:36.905Z,99.99
2018-02-17T03:16:36.908Z,99.99
2018-02-17T03:17:36.976Z,99.99
2018-02-17T03:18:36.941Z,99.99
2018-02-17T03:19:36.950Z,99.99
2018-02-17T03:20:36.959Z,99.99
2018-02-17T03:21:36.965Z,99.99
2018-02-17T03:22:36.980Z,99.99
2018-02-17T03:23:37.018Z,99.99
2018-02-17T03:24:36.988Z,99.99
2018-02-17T03:25:37.001Z,99.99
2018-02-17T03:26:37.008Z,99.99
2018-02-17T03:27:37.023Z,99.99
2018-02-17T03:28:37.032Z,99.99
2018-02-17T03:29:37.036Z,99.99
2018-02-17T03:30:37.049Z,99.99
2018-02-17T03:31:37.065Z,99.99
2018-02-17T03:32:37.060Z,99.99
2018-02-17T03:33:37.093Z,99.99
2018-02-17T03:34:37.078Z,99.99
2018-02-17T03:35:37.098Z,99.99
2018-02-17T03:36:37.101Z,99.99
2018-02-17T03:37:37.106Z,99.99
2018-02-17T03:38:37.135Z,99.99
2018-02-17T03:39:37.138Z,99.99
2018-02-17T03:40:37.147Z,99.99
2018-02-17T03:41:37.160Z,99.99
2018-02-17T03:42:37.165Z,99.99
2018-02-17T03:43:37.175Z,99.99
2018-02-17T03:44:37.183Z,99.99
2018-02-17T03:45:37.191Z,99.99
2018-02-17T03:46:37.208Z,99.99
2018-02-17T03:47:37.209Z,99.99
2018-02-17T03:48:37.217Z,99.99
2018-02-17T03:49:37.243Z,99.99
2018-02-17T03:50:37.245Z,99.99
2018-02-17T03:51:37.270Z,99.99
2018-02-17T03:52:37.266Z,99.99
2018-02-17T03:53:37.271Z,99.99
2018-02-17T03:54:37.290Z,99.99
2018-02-17T03:55:37.292Z,99.99
2018-02-17T03:56:37.299Z,99.99
2018-02-17T03:57:37.313Z,99.99
2018-02-17T03:58:37.314Z,99.99
2018-02-17T03:59:37.336Z,99.99
2018-02-17T04:00:37.341Z,99.99
2018-02-17T04:01:37.357Z,99.99
2018-02-17T04:02:37.368Z,99.99
2018-02-17T04:03:37.375Z,99.99
2018-02-17T04:04:37.382Z,99.99
2018-02-17T04:05:37.393Z,99.99
2018-02-17T04:06:37.401Z,99.99
2018-02-17T04:07:37.412Z,99.99
2018-02-17T04:08:37.421Z,99.99
2018-02-17T04:09:37.427Z,99.99
2018-02-17T04:10:37.452Z,99.99
2018-02-17T04:11:37.453Z,99.99
2018-02-17T04:12:37.461Z,99.99
2018-02-17T04:13:37.474Z,99.99
2018-02-17T04:14:37.485Z,99.99
2018-02-17T04:15:37.494Z,99.99
2018-02-17T04:16:37.503Z,99.99
2018-02-17T04:17:37.508Z,99.99
2018-02-17T04:18:37.532Z,99.99
2018-02-17T04:19:37.541Z,99.99
2018-02-17T04:20:37.548Z,99.99
2018-02-17T04:21:37.564Z,99.99
2018-02-17T04:22:37.562Z,99.99
2018-02-17T04:23:37.575Z,99.99
2018-02-17T04:24:37.584Z,99.99
2018-02-17T04:25:37.588Z,99.99
2018-02-17T04:26:37.616Z,99.99
2018-02-17T04:27:37.621Z,99.99
2018-02-17T04:28:37.628Z,99.99
2018-02-17T04:29:37.642Z,99.99
2018-02-17T04:30:37.643Z,99.99
2018-02-17T04:31:37.657Z,99.99
2018-02-17T04:32:37.666Z,99.99
2018-02-17T04:33:37.674Z,99.99
2018-02-17T04:34:37.699Z,99.99
2018-02-17T04:35:37.703Z,99.99
2018-02-17T04:36:37.714Z,99.99
2018-02-17T04:37:37.724Z,99.99
2018-02-17T04:38:37.729Z,99.99
2018-02-17T04:39:37.742Z,99.99
2018-02-17T04:40:37.751Z,99.99
2018-02-17T04:41:37.758Z,99.99
2018-02-17T04:42:37.779Z,99.99
2018-02-17T04:43:37.783Z,99.99
2018-02-17T04:44:37.800Z,99.99
2018-02-17T04:45:37.813Z,99.99
2018-02-17T04:46:37.812Z,99.99
2018-02-17T04:47:37.829Z,99.99
2018-02-17T04:48:37.836Z,99.99
2018-02-17T04:49:37.840Z,99.99
2018-02-17T04:50:37.862Z,99.99
2018-02-17T04:51:37.874Z,99.99
2018-02-17T04:52:37.875Z,99.99
2018-02-17T04:53:37.890Z,99.99
2018-02-17T04:54:37.899Z,99.99
2018-02-17T04:55:37.901Z,99.99
2018-02-17T04:56:37.913Z,99.99
2018-02-17T04:57:37.936Z,99.99
2018-02-17T04:58:37.942Z,99.99
2018-02-17T04:59:37.958Z,99.99
2018-02-17T05:00:37.964Z,99.99
2018-02-17T05:01:37.968Z,99.99
2018-02-17T05:02:37.979Z,99.99
2018-02-17T05:03:37.989Z,99.99
2018-02-17T05:04:38.013Z,99.99
2018-02-17T05:05:38.022Z,99.99
2018-02-17T05:06:38.025Z,99.99
2018-02-17T05:07:38.041Z,99.99
2018-02-17T05:08:38.047Z,99.99
2018-02-17T05:09:38.053Z,99.99
2018-02-17T05:10:38.066Z,99.99
2018-02-17T05:11:38.086Z,99.99
2018-02-17T05:12:38.090Z,99.99
2018-02-17T05:13:38.105Z,99.99
2018-02-17T05:14:38.105Z,99.99
2018-02-17T05:15:38.121Z,99.99
2018-02-17T05:16:38.132Z,99.99
2018-02-17T05:17:38.132Z,99.99
2018-02-17T05:18:38.158Z,99.99
2018-02-17T05:19:38.166Z,99.99
2018-02-17T05:20:38.171Z,99.99
2018-02-17T05:21:38.184Z,99.99
2018-02-17T05:22:38.186Z,99.99
2018-02-17T05:23:38.200Z,99.99
2018-02-17T05:24:38.216Z,99.99
2018-02-17T05:25:38.224Z,99.99
2018-02-17T05:26:38.247Z,99.99
2018-02-17T05:27:38.243Z,99.99
2018-02-17T05:28:38.254Z,99.99
2018-02-17T05:29:38.264Z,99.99
2018-02-17T05:30:38.275Z,99.99
2018-02-17T05:31:38.299Z,99.99
2018-02-17T05:32:38.306Z,99.99
2018-02-17T05:33:38.311Z,99.99
2018-02-17T05:34:38.323Z,99.99
2018-02-17T05:35:38.332Z,99.99
2018-02-17T05:36:38.334Z,99.99
2018-02-17T05:37:38.353Z,99.99
2018-02-17T05:38:38.366Z,99.99
2018-02-17T05:39:38.383Z,99.99
2018-02-17T05:40:38.392Z,99.99
2018-02-17T05:41:38.392Z,99.99
2018-02-17T05:42:38.409Z,99.99
2018-02-17T05:43:38.410Z,99.99
2018-02-17T05:44:38.432Z,99.99
2018-02-17T05:45:38.445Z,99.99
2018-02-17T05:46:38.447Z,99.99
2018-02-17T05:47:38.458Z,99.99
2018-02-17T05:48:38.468Z,99.99
2018-02-17T05:49:38.474Z,99.99
2018-02-17T05:50:38.488Z,99.99
2018-02-17T05:51:38.503Z,99.99
2018-02-17T05:52:38.512Z,99.99
2018-02-17T05:53:38.527Z,99.99
2018-02-17T05:54:38.528Z,99.99
2018-02-17T05:55:38.546Z,99.99
2018-02-17T05:56:38.558Z,99.99
2018-02-17T05:57:38.566Z,99.99
2018-02-17T05:58:38.585Z,99.99
2018-02-17T05:59:38.587Z,99.99
2018-02-17T06:00:38.594Z,99.99
2018-02-17T06:01:38.609Z,99.99
2018-02-17T06:02:38.610Z,99.99
2018-02-17T06:03:38.635Z,99.99
2018-02-17T06:04:38.645Z,99.99
2018-02-17T06:05:38.648Z,99.99
2018-02-17T06:06:38.664Z,99.99
2018-02-17T06:07:38.684Z,99.99
2018-02-17T06:08:38.685Z,99.99
2018-02-17T06:09:38.705Z,99.99
2018-02-17T06:10:38.705Z,99.99
2018-02-17T06:11:38.719Z,99.99
2018-02-17T06:12:38.727Z,99.99
2018-02-17T06:13:38.731Z,99.99
2018-02-17T06:14:38.759Z,99.99
2018-02-17T06:15:38.761Z,99.99
2018-02-17T06:16:38.770Z,99.99
2018-02-17T06:17:38.783Z,99.99
2018-02-17T06:18:38.791Z,99.99
2018-02-17T06:19:38.805Z,99.99
2018-02-17T06:20:38.812Z,99.99
2018-02-17T06:21:38.829Z,99.99
2018-02-17T06:22:38.841Z,99.99
2018-02-17T06:23:38.844Z,99.99
2018-02-17T06:24:38.853Z,99.99
2018-02-17T06:25:38.865Z,99.99
2018-02-17T06:26:38.886Z,99.99
2018-02-17T06:27:38.898Z,99.99
2018-02-17T06:28:38.911Z,99.99
2018-02-17T06:29:38.912Z,99.99
2018-02-17T06:30:38.927Z,99.99
2018-02-17T06:31:38.941Z,99.99
2018-02-17T06:32:38.951Z,99.99
2018-02-17T06:33:38.964Z,99.99
2018-02-17T06:34:38.972Z,99.99
2018-02-17T06:35:38.980Z,99.99
2018-02-17T06:36:38.989Z,99.99
2018-02-17T06:37:39.004Z,99.99
2018-02-17T06:38:39.020Z,99.99
2018-02-17T06:39:39.036Z,99.99
2018-02-17T06:40:39.035Z,99.99
2018-02-17T06:41:39.050Z,99.99
2018-02-17T06:42:39.056Z,99.99
2018-02-17T06:43:39.079Z,99.99
2018-02-17T06:44:39.101Z,99.99
2018-02-17T06:45:39.088Z,99.99
2018-02-17T06:46:39.101Z,99.99
2018-02-17T06:47:39.106Z,99.99
2018-02-17T06:48:39.128Z,99.99
2018-02-17T06:49:39.139Z,99.99
2018-02-17T06:50:39.149Z,99.99
2018-02-17T06:51:39.159Z,99.99
2018-02-17T06:52:39.169Z,99.99
2018-02-17T06:53:39.186Z,99.99
2018-02-17T06:54:39.198Z,99.99
2018-02-17T06:55:39.202Z,99.99
2018-02-17T06:56:39.210Z,99.99
2018-02-17T06:57:39.224Z,99.99
2018-02-17T06:58:39.233Z,99.99
2018-02-17T06:59:39.254Z,99.99
2018-02-17T07:00:39.265Z,99.99
2018-02-17T07:01:39.270Z,99.99
2018-02-17T07:02:39.284Z,99.99
2018-02-17T07:03:39.300Z,99.99
2018-02-17T07:04:39.308Z,99.99
2018-02-17T07:05:39.322Z,99.99
2018-02-17T07:06:39.327Z,99.99
2018-02-17T07:07:39.336Z,99.99
2018-02-17T07:08:39.346Z,99.99
2018-02-17T07:09:39.396Z,99.99
2018-02-17T07:10:39.377Z,99.99
2018-02-17T07:11:39.382Z,99.99
2018-02-17T07:12:39.390Z,99.99
2018-02-17T07:13:39.405Z,99.99
2018-02-17T07:14:39.422Z,99.99
2018-02-17T07:15:39.433Z,99.99
2018-02-17T07:16:39.444Z,99.99
2018-02-17T07:17:39.452Z,99.99
2018-02-17T07:18:39.472Z,99.99
2018-02-17T07:19:39.476Z,99.99
2018-02-17T07:20:39.491Z,99.99
2018-02-17T07:21:39.497Z,99.99
2018-02-17T07:22:39.509Z,99.99
2018-02-17T07:23:39.532Z,99.99
2018-02-17T07:24:39.538Z,99.99
2018-02-17T07:25:39.545Z,99.99
2018-02-17T07:26:39.554Z,99.99
2018-02-17T07:27:39.576Z,99.99
2018-02-17T07:28:39.581Z,99.99
2018-02-17T07:29:39.596Z,99.99
2018-02-17T07:30:39.602Z,99.99
2018-02-17T07:31:39.613Z,99.99
2018-02-17T07:32:39.634Z,99.99
2018-02-17T07:33:39.641Z,99.99
2018-02-17T07:34:39.652Z,99.99
2018-02-17T07:35:39.657Z,99.99
2018-02-17T07:36:39.666Z,99.99
2018-02-17T07:37:39.696Z,99.99
2018-02-17T07:38:39.695Z,99.99
2018-02-17T07:39:39.707Z,99.99
2018-02-17T07:40:39.717Z,99.99
2018-02-17T07:41:39.737Z,99.99
2018-02-17T07:42:39.748Z,99.99
2018-02-17T07:43:39.780Z,99.99
2018-02-17T07:44:39.768Z,99.99
2018-02-17T07:45:39.787Z,99.99
2018-02-17T07:46:39.842Z,99.99
2018-02-17T07:47:39.805Z,99.99
2018-02-17T07:48:39.811Z,99.99
2018-02-17T07:49:39.836Z,99.99
2018-02-17T07:50:39.842Z,99.99
2018-02-17T07:51:39.872Z,99.99
2018-02-17T07:52:39.856Z,99.99
2018-02-17T07:53:39.882Z,99.99
2018-02-17T07:54:39.889Z,99.99
2018-02-17T07:55:39.902Z,99.99
2018-02-17T07:56:39.911Z,99.99
2018-02-17T07:57:39.927Z,99.99
2018-02-17T07:58:39.939Z,99.99
2018-02-17T07:59:39.946Z,99.99
2018-02-17T08:00:39.965Z,99.99
2018-02-17T08:01:39.983Z,99.99
2018-02-17T08:02:39.984Z,99.99
2018-02-17T08:03:39.998Z,99.99
2018-02-17T08:04:40.010Z,99.99
2018-02-17T08:05:40.027Z,99.99
2018-02-17T08:06:40.036Z,99.99
2018-02-17T08:07:40.044Z,99.99
2018-02-17T08:08:40.056Z,99.99
2018-02-17T08:09:40.075Z,99.99
2018-02-17T08:10:40.081Z,99.99
2018-02-17T08:11:40.098Z,99.99
2018-02-17T08:12:40.115Z,99.99
2018-02-17T08:13:40.120Z,99.99
2018-02-17T08:14:40.132Z,99.99
2018-02-17T08:15:40.139Z,99.99
2018-02-17T08:16:40.158Z,99.99
2018-02-17T08:17:40.171Z,99.99
2018-02-17T08:18:40.178Z,99.99
2018-02-17T08:19:40.203Z,99.99
2018-02-17T08:20:40.213Z,99.99
2018-02-17T08:21:40.223Z,99.99
2018-02-17T08:22:40.230Z,99.99
2018-02-17T08:23:40.247Z,99.99
2018-02-17T08:24:40.257Z,99.99
2018-02-17T08:25:40.273Z,99.99
2018-02-17T08:26:40.286Z,99.99
2018-02-17T08:27:40.298Z,99.99
2018-02-17T08:28:40.307Z,99.99
2018-02-17T08:29:40.313Z,99.99
2018-02-17T08:30:40.341Z,99.99
2018-02-17T08:31:40.344Z,99.99
2018-02-17T08:32:40.354Z,99.99
2018-02-17T08:33:40.380Z,99.99
2018-02-17T08:34:40.382Z,99.99
2018-02-17T08:35:40.397Z,99.99
2018-02-17T08:36:40.404Z,99.99
2018-02-17T08:37:40.436Z,99.99
2018-02-17T08:38:40.433Z,99.99
2018-02-17T08:39:40.444Z,99.99
2018-02-17T08:40:40.460Z,99.99
2018-02-17T08:41:40.479Z,99.99
2018-02-17T08:42:40.484Z,99.99
2018-02-17T08:43:40.507Z,99.99
2018-02-17T08:44:40.516Z,99.99
2018-02-17T08:45:40.527Z,99.99
2018-02-17T08:46:40.543Z,99.99
2018-02-17T08:47:40.548Z,99.99
2018-02-17T08:48:40.556Z,99.99
2018-02-17T08:49:40.581Z,99.99
2018-02-17T08:50:40.592Z,99.99
2018-02-17T08:51:40.601Z,99.99
2018-02-17T08:52:40.626Z,99.99
2018-02-17T08:53:40.630Z,99.99
2018-02-17T08:54:40.672Z,99.99
2018-02-17T08:55:40.659Z,99.99
2018-02-17T08:56:40.671Z,99.99
2018-02-17T08:57:40.680Z,99.99
2018-02-17T08:58:40.699Z,99.99
2018-02-17T08:59:40.711Z,99.99
2018-02-17T09:00:40.718Z,99.99
2018-02-17T09:01:40.734Z,99.99
2018-02-17T09:02:40.751Z,99.99
2018-02-17T09:03:40.756Z,99.99
2018-02-17T09:04:40.775Z,99.99
2018-02-17T09:05:40.791Z,99.99
2018-02-17T09:06:40.808Z,99.99
2018-02-17T09:07:40.817Z,99.99
2018-02-17T09:08:40.826Z,99.99
2018-02-17T09:09:40.850Z,99.99
2018-02-17T09:10:40.852Z,99.99
2018-02-17T09:11:40.866Z,99.99
2018-02-17T09:12:40.891Z,99.99
2018-02-17T09:13:40.904Z,99.99
2018-02-17T09:14:40.920Z,99.99
2018-02-17T09:15:40.924Z,99.99
2018-02-17T09:16:40.932Z,99.99
2018-02-17T09:17:40.960Z,99.99
2018-02-17T09:18:40.964Z,99.99
2018-02-17T09:19:40.987Z,99.99
2018-02-17T09:20:40.999Z,99.99
2018-02-17T09:21:41.006Z,99.99
2018-02-17T09:22:41.029Z,99.99
2018-02-17T09:23:41.034Z,99.99
2018-02-17T09:24:41.054Z,99.99
2018-02-17T09:25:41.067Z,99.99
2018-02-17T09:26:41.085Z,99.99
2018-02-17T09:27:41.097Z,99.99
2018-02-17T09:28:41.106Z,99.99
2018-02-17T09:29:41.127Z,99.99
2018-02-17T09:30:41.139Z,99.99
2018-02-17T09:31:41.158Z,99.99
2018-02-17T09:32:41.161Z,99.99
2018-02-17T09:33:41.174Z,99.99
2018-02-17T09:34:41.193Z,99.99
2018-02-17T09:35:41.206Z,99.99
2018-02-17T09:36:41.228Z,99.99
2018-02-17T09:37:41.234Z,99.99
2018-02-17T09:38:41.256Z,99.99
2018-02-17T09:39:41.261Z,99.99
2018-02-17T09:40:41.282Z,99.99
2018-02-17T09:41:41.305Z,99.99
2018-02-17T09:42:41.302Z,99.99
2018-02-17T09:43:41.328Z,99.99
2018-02-17T09:44:41.335Z,99.99
2018-02-17T09:45:41.354Z,99.99
2018-02-17T09:46:41.369Z,99.99
2018-02-17T09:47:41.389Z,99.99
2018-02-17T09:48:41.394Z,99.99
2018-02-17T09:49:41.418Z,99.99
2018-02-17T09:50:41.427Z,99.99
2018-02-17T09:51:41.450Z,99.99
2018-02-17T09:52:41.462Z,99.99
2018-02-17T09:53:41.473Z,99.99
2018-02-17T09:54:41.490Z,99.99
2018-02-17T09:55:41.508Z,99.99
2018-02-17T09:56:41.514Z,99.99
2018-02-17T09:57:41.539Z,99.99
2018-02-17T09:58:41.547Z,99.99
2018-02-17T09:59:41.570Z,99.99
2018-02-17T10:00:41.579Z,99.99
2018-02-17T10:01:41.596Z,99.99
2018-02-17T10:02:41.609Z,99.99
2018-02-17T10:03:41.625Z,99.99
2018-02-17T10:04:41.634Z,99.99
2018-02-17T10:05:41.666Z,99.99
2018-02-17T10:06:41.667Z,99.99
2018-02-17T10:07:41.692Z,99.99
2018-02-17T10:08:41.703Z,99.99
2018-02-17T10:09:41.721Z,99.99
2018-02-17T10:10:41.728Z,99.99
2018-02-17T10:11:41.750Z,99.99
2018-02-17T10:12:41.755Z,99.99
2018-02-17T10:13:41.781Z,99.99
2018-02-17T10:14:41.788Z,99.99
2018-02-17T10:15:41.805Z,99.99
2018-02-17T10:16:41.822Z,99.99
2018-02-17T10:17:41.828Z,99.99
2018-02-17T10:18:41.850Z,99.99
2018-02-17T10:19:41.866Z,99.99
2018-02-17T10:20:41.883Z,99.99
2018-02-17T10:21:41.891Z,99.99
2018-02-17T10:22:41.909Z,99.99
2018-02-17T10:23:41.937Z,99.99
2018-02-17T10:24:41.945Z,99.99
2018-02-17T10:25:41.964Z,99.99
2018-02-17T10:26:41.976Z,99.99
2018-02-17T10:27:41.993Z,99.99
2018-02-17T10:28:41.997Z,99.99
2018-02-17T10:29:42.024Z,99.99
2018-02-17T10:30:42.037Z,99.99
2018-02-17T10:31:42.054Z,99.99
2018-02-17T10:32:42.062Z,99.99
2018-02-17T10:33:42.080Z,99.99
2018-02-17T10:34:42.095Z,99.99
2018-02-17T10:35:42.115Z,99.99
2018-02-17T10:36:42.120Z,99.99
2018-02-17T10:37:42.154Z,99.99
2018-02-17T10:38:42.149Z,99.99
2018-02-17T10:39:42.179Z,99.99
2018-02-17T10:40:42.184Z,99.99
2018-02-17T10:41:42.201Z,99.99
2018-02-17T10:42:42.216Z,99.99
2018-02-17T10:43:42.237Z,99.99
2018-02-17T10:44:42.242Z,99.99
2018-02-17T10:45:42.272Z,99.99
2018-02-17T10:46:42.271Z,99.99
2018-02-17T10:47:42.299Z,99.99
2018-02-17T10:48:42.307Z,99.99
2018-02-17T10:49:42.324Z,99.99
2018-02-17T10:50:42.352Z,99.99
2018-02-17T10:51:42.358Z,99.99
2018-02-17T10:52:42.362Z,99.99
2018-02-17T10:53:42.386Z,99.99
2018-02-17T10:54:42.405Z,99.99
2018-02-17T10:55:42.421Z,99.99
2018-02-17T10:56:42.441Z,99.99
2018-02-17T10:57:42.447Z,99.99
2018-02-17T10:58:42.471Z,99.99
2018-02-17T10:59:42.474Z,99.99
2018-02-17T11:00:42.501Z,99.99
2018-02-17T11:01:42.520Z,99.99
2018-02-17T11:02:42.528Z,99.99
2018-02-17T11:03:42.551Z,99.99
2018-02-17T11:04:42.560Z,99.99
2018-02-17T11:05:42.585Z,99.99
2018-02-17T11:06:42.596Z,99.99
2018-02-17T11:07:42.610Z,99.99
2018-02-17T11:08:42.623Z,99.99
2018-02-17T11:09:42.644Z,99.99
2018-02-17T11:10:42.652Z,99.99
2018-02-17T11:11:42.677Z,99.99
2018-02-17T11:12:42.693Z,99.99
2018-02-17T11:13:42.705Z,99.99
2018-02-17T11:14:42.729Z,99.99
2018-02-17T11:15:42.733Z,99.99
2018-02-17T11:16:42.752Z,99.99
2018-02-17T11:17:42.778Z,99.99
2018-02-17T11:18:42.787Z,99.99
2018-02-17T11:19:42.804Z,99.99
2018-02-17T11:20:42.814Z,99.99
2018-02-17T11:21:42.837Z,99.99
2018-02-17T11:22:42.859Z,99.99
2018-02-17T11:23:42.867Z,99.99
2018-02-17T11:24:42.897Z,99.99
2018-02-17T11:25:42.910Z,99.99
2018-02-17T11:26:42.919Z,99.99
2018-02-17T11:27:42.941Z,99.99
2018-02-17T11:28:42.958Z,99.99
2018-02-17T11:29:42.972Z,99.99
2018-02-17T11:30:42.987Z,99.99
2018-02-17T11:31:43.000Z,99.99
2018-02-17T11:32:43.021Z,99.99
2018-02-17T11:33:43.051Z,99.99
2018-02-17T11:34:43.057Z,99.99
2018-02-17T11:35:43.089Z,99.99
2018-02-17T11:36:43.090Z,99.99
2018-02-17T11:37:43.103Z,99.99
2018-02-17T11:38:43.122Z,99.99
2018-02-17T11:39:43.148Z,99.99
2018-02-17T11:40:43.158Z,99.99
2018-02-17T11:41:43.179Z,99.99
2018-02-17T11:42:43.186Z,99.99
2018-02-17T11:43:43.202Z,99.99
2018-02-17T11:44:43.229Z,99.99
2018-02-17T11:45:43.241Z,99.99
2018-02-17T11:46:43.256Z,99.99
2018-02-17T11:47:43.283Z,99.99
2018-02-17T11:48:43.292Z,99.99
2018-02-17T11:49:43.310Z,99.99
2018-02-17T11:50:43.333Z,99.99
2018-02-17T11:51:43.338Z,99.99
2018-02-17T11:52:43.360Z,99.99
2018-02-17T11:53:43.385Z,99.99
2018-02-17T11:54:43.392Z,99.99
2018-02-17T11:55:43.420Z,99.99
2018-02-17T11:56:43.437Z,99.99
2018-02-17T11:57:43.440Z,99.99
2018-02-17T11:58:43.493Z,99.99
2018-02-17T11:59:43.484Z,99.99
2018-02-17T12:00:43.506Z,99.99
2018-02-17T12:01:43.519Z,99.99
2018-02-17T12:02:43.537Z,99.99
2018-02-17T12:03:43.572Z,99.99
2018-02-17T12:04:43.571Z,99.99
2018-02-17T12:05:43.592Z,99.99
2018-02-17T12:06:43.612Z,99.99
2018-02-17T12:07:43.629Z,99.69
2018-02-17T12:08:43.639Z,99.50
2018-02-17T12:09:43.672Z,98.83
2018-02-17T12:10:43.683Z,98.64
2018-02-17T12:11:43.696Z,98.45
2018-02-17T12:12:43.722Z,98.26
2018-02-17T12:13:43.734Z,98.64
2018-02-17T12:14:43.747Z,98.36
2018-02-17T12:15:43.762Z,98.26
2018-02-17T12:16:43.783Z,98.17
2018-02-17T12:17:43.810Z,98.07
2018-02-17T12:18:43.819Z,98.55
2018-02-17T12:19:43.843Z,99.02
2018-02-17T12:20:43.863Z,99.30
2018-02-17T12:21:43.869Z,98.93
2018-02-17T12:22:43.891Z,98.64
2018-02-17T12:23:43.908Z,98.64
2018-02-17T12:24:43.933Z,98.55
2018-02-17T12:25:43.944Z,98.64
2018-02-17T12:26:43.967Z,98.36
2018-02-17T12:27:43.989Z,98.55
2018-02-17T12:28:44.001Z,98.55
2018-02-17T12:29:44.019Z,98.07
2018-02-17T12:30:44.038Z,98.26
2018-02-17T12:31:44.059Z,97.97
2018-02-17T12:32:44.068Z,97.88
2018-02-17T12:33:44.090Z,98.17
2018-02-17T12:34:44.108Z,98.45
2018-02-17T12:35:44.122Z,98.26
2018-02-17T12:36:44.147Z,97.88
2018-02-17T12:37:44.161Z,98.07
2018-02-17T12:38:44.189Z,98.17
2018-02-17T12:39:44.192Z,97.31
2018-02-17T12:40:44.211Z,97.78
2018-02-17T12:41:44.239Z,98.45
2018-02-17T12:42:44.240Z,98.17
2018-02-17T12:43:44.267Z,98.07
2018-02-17T12:44:44.304Z,98.31
2018-02-17T12:45:44.299Z,97.12
2018-02-17T12:46:44.323Z,96.65
2018-02-17T12:47:44.337Z,96.74
2018-02-17T12:48:44.351Z,96.45
2018-02-17T12:49:44.372Z,96.08
2018-02-17T12:50:44.403Z,95.89
2018-02-17T12:51:44.411Z,95.98
2018-02-17T12:52:44.421Z,96.17